Time;durP1;ratioP1;P1;durP2;ratioP2;P2;SDS_P1;SDS_P2;PMS_P1;PMS_P2;Temp;Humidity;BMP_temperature;BMP_pressure;BME280_temperature;BME280_humidity;BME280_pressure;Samples;Min_cycle;Max_cycle;Signal;HPM_P1;HPM_P2
2022/01/19 00:00:48;;;;;;;271.67;20.00;;;;;;;;;;5011805;28;92092;-69
2022/01/19 00:03:15;;;;;;;316.52;22.33;;;;;;;;;;5005833;28;93750;-69
2022/01/19 00:05:42;;;;;;;209.27;20.45;;;;;;;;;;5004218;28;92566;-69
2022/01/19 00:08:08;;;;;;;228.48;22.33;;;;;;;;;;5004323;28;94812;-69
2022/01/19 00:10:34;;;;;;;300.60;19.65;;;;;;;;;;5009898;28;92399;-69
2022/01/19 00:13:01;;;;;;;314.63;20.33;;;;;;;;;;5000819;28;92377;-69
2022/01/19 00:15:28;;;;;;;274.75;20.20;;;;;;;;;;4992519;28;94216;-69
2022/01/19 00:17:57;;;;;;;396.60;21.02;;;;;;;;;;4992474;28;92403;-69
2022/01/19 00:20:24;;;;;;;369.27;18.83;;;;;;;;;;4995129;28;93105;-69
2022/01/19 00:22:50;;;;;;;278.17;19.30;;;;;;;;;;5004633;28;93618;-69
2022/01/19 00:25:17;;;;;;;290.85;20.25;;;;;;;;;;5012271;28;92382;-69
2022/01/19 00:27:43;;;;;;;308.35;17.98;;;;;;;;;;5009473;28;92505;-69
2022/01/19 00:30:10;;;;;;;218.98;18.58;;;;;;;;;;5002886;28;93221;-69
2022/01/19 00:32:36;;;;;;;413.23;21.60;;;;;;;;;;4998877;28;94748;-69
2022/01/19 00:35:03;;;;;;;257.52;21.45;;;;;;;;;;5011041;28;96452;-69
2022/01/19 00:37:29;;;;;;;252.95;20.38;;;;;;;;;;5011159;28;92436;-69
2022/01/19 00:39:56;;;;;;;325.95;21.63;;;;;;;;;;5009639;28;92406;-69
2022/01/19 00:42:22;;;;;;;187.52;18.45;;;;;;;;;;5011878;28;92876;-69
2022/01/19 00:44:49;;;;;;;221.68;20.20;;;;;;;;;;5011866;28;93261;-69
2022/01/19 00:47:16;;;;;;;129.50;16.38;;;;;;;;;;5003765;28;92532;-69
2022/01/19 00:49:42;;;;;;;117.93;16.55;;;;;;;;;;5014900;28;93297;-69
2022/01/19 00:52:09;;;;;;;128.85;16.33;;;;;;;;;;5007643;28;92316;-69
2022/01/19 00:54:36;;;;;;;106.18;14.75;;;;;;;;;;5009314;28;93250;-69
2022/01/19 00:57:03;;;;;;;124.30;12.88;;;;;;;;;;5002071;28;95856;-69
2022/01/19 00:59:29;;;;;;;60.38;13.70;;;;;;;;;;5007564;28;92456;-69
2022/01/19 01:01:56;;;;;;;73.28;14.32;;;;;;;;;;5009198;28;93259;-69
2022/01/19 01:04:22;;;;;;;108.85;14.68;;;;;;;;;;5002281;28;92415;-69
2022/01/19 01:06:48;;;;;;;95.57;13.52;;;;;;;;;;5010309;28;92794;-69
2022/01/19 01:09:15;;;;;;;61.72;13.50;;;;;;;;;;5005607;28;94396;-69
2022/01/19 01:11:58;;;;;;;96.13;13.20;;;;;;;;;;5009142;28;93473;-69
2022/01/19 01:19:58;;;;;;;63.92;14.95;;;;;;;;;;5009569;28;92366;-69
2022/01/19 01:22:24;;;;;;;71.93;14.20;;;;;;;;;;4993464;28;94815;-69
2022/01/19 01:24:51;;;;;;;26.60;13.15;;;;;;;;;;5011238;28;92430;-70
2022/01/19 01:27:18;;;;;;;52.90;11.90;;;;;;;;;;4998525;28;92590;-69
2022/01/19 01:29:44;;;;;;;40.88;12.95;;;;;;;;;;5009923;28;92935;-69
2022/01/19 01:32:10;;;;;;;44.20;13.15;;;;;;;;;;5008317;28;92445;-69
2022/01/19 01:34:37;;;;;;;21.00;12.90;;;;;;;;;;5013628;28;93357;-69
2022/01/19 01:37:03;;;;;;;29.33;12.63;;;;;;;;;;5004454;28;94450;-69
2022/01/19 01:39:29;;;;;;;25.45;13.00;;;;;;;;;;5009193;28;91653;-69
2022/01/19 01:41:56;;;;;;;30.45;14.57;;;;;;;;;;5009223;28;92375;-69
2022/01/19 01:44:22;;;;;;;23.95;12.73;;;;;;;;;;5003609;28;93394;-69
2022/01/19 01:46:53;;;;;;;21.55;13.80;;;;;;;;;;5001313;28;94856;-69
2022/01/19 01:49:40;;;;;;;22.98;13.63;;;;;;;;;;5012646;28;99773;-69
2022/01/19 01:54:51;;;;;;;19.52;12.52;;;;;;;;;;5010830;28;92847;-69
2022/01/19 01:57:17;;;;;;;18.67;13.07;;;;;;;;;;5004587;28;92446;-69
2022/01/19 01:59:44;;;;;;;19.02;12.52;;;;;;;;;;5014354;28;92563;-69
2022/01/19 02:02:10;;;;;;;17.80;12.27;;;;;;;;;;5009666;28;92375;-69
2022/01/19 02:04:40;;;;;;;19.90;11.82;;;;;;;;;;5011312;28;92700;-69
2022/01/19 02:07:21;;;;;;;17.05;11.75;;;;;;;;;;5014213;28;92808;-69
2022/01/19 02:09:51;;;;;;;;;;;;;;;;;;5007871;28;93428;-69
2022/01/19 02:23:38;;;;;;;20.23;10.63;;;;;;;;;;5012677;28;93691;-69
2022/01/19 02:26:10;;;;;;;15.63;10.85;;;;;;;;;;5011683;28;92523;-69
2022/01/19 02:42:09;;;;;;;19.25;12.05;;;;;;;;;;5015760;28;94659;-69
2022/01/19 02:46:37;;;;;;;15.75;10.80;;;;;;;;;;5012440;28;92395;-69
2022/01/19 02:49:50;;;;;;;17.00;11.35;;;;;;;;;;5013769;28;92422;-69
2022/01/19 02:52:18;;;;;;;17.20;10.27;;;;;;;;;;5000578;28;92336;-69
2022/01/19 02:54:44;;;;;;;14.10;9.50;;;;;;;;;;5010081;28;92907;-69
2022/01/19 02:57:13;;;;;;;14.75;10.27;;;;;;;;;;5012213;28;91739;-69
2022/01/19 03:10:34;;;;;;;16.48;10.25;;;;;;;;;;5011766;28;92436;-69
2022/01/19 03:13:00;;;;;;;22.38;9.90;;;;;;;;;;5000171;28;92380;-70
2022/01/19 03:15:27;;;;;;;21.65;10.15;;;;;;;;;;5009186;28;93360;-69
2022/01/19 03:17:58;;;;;;;16.08;10.18;;;;;;;;;;5012401;28;93258;-69
2022/01/19 03:20:24;;;;;;;18.00;9.30;;;;;;;;;;5001356;28;93476;-69
2022/01/19 03:23:02;;;;;;;15.48;9.77;;;;;;;;;;5002549;28;93414;-69
2022/01/19 03:25:28;;;;;;;15.05;10.13;;;;;;;;;;5004470;28;92929;-69
2022/01/19 03:27:54;;;;;;;20.73;9.65;;;;;;;;;;4997614;28;93162;-69
2022/01/19 03:30:21;;;;;;;17.20;10.07;;;;;;;;;;5011168;28;94847;-69
2022/01/19 03:32:48;;;;;;;14.70;9.73;;;;;;;;;;5007841;28;95509;-69
2022/01/19 03:35:14;;;;;;;18.00;10.60;;;;;;;;;;5010650;28;92400;-69
2022/01/19 03:37:41;;;;;;;17.02;10.50;;;;;;;;;;5010891;28;92406;-69
2022/01/19 03:40:08;;;;;;;15.98;9.27;;;;;;;;;;5004894;28;92056;-69
2022/01/19 03:42:35;;;;;;;18.35;8.77;;;;;;;;;;5005374;28;92366;-69
2022/01/19 03:45:02;;;;;;;15.88;9.60;;;;;;;;;;5012438;28;92585;-69
2022/01/19 03:47:32;;;;;;;16.02;8.80;;;;;;;;;;5010355;28;93280;-69
2022/01/19 03:49:58;;;;;;;20.65;10.07;;;;;;;;;;5009305;28;93447;-69
2022/01/19 03:52:24;;;;;;;22.70;10.00;;;;;;;;;;5009206;28;93124;-69
2022/01/19 03:54:50;;;;;;;20.58;9.63;;;;;;;;;;5011562;28;96987;-69
2022/01/19 03:57:16;;;;;;;19.50;9.40;;;;;;;;;;5002059;28;92467;-69
2022/01/19 03:59:43;;;;;;;21.70;10.25;;;;;;;;;;5010140;28;93908;-69
2022/01/19 04:02:09;;;;;;;16.35;9.70;;;;;;;;;;5004911;28;92719;-69
2022/01/19 04:05:00;;;;;;;19.13;11.05;;;;;;;;;;5009633;28;92500;-69
2022/01/19 04:07:31;;;;;;;19.48;11.00;;;;;;;;;;5011428;28;92398;-69
2022/01/19 04:09:57;;;;;;;26.55;11.88;;;;;;;;;;5011519;28;92384;-69
2022/01/19 04:15:08;;;;;;;24.52;11.93;;;;;;;;;;5001786;28;92688;-69
2022/01/19 04:17:37;;;;;;;31.48;13.35;;;;;;;;;;5004595;28;92618;-69
2022/01/19 04:20:03;;;;;;;27.92;13.43;;;;;;;;;;5003189;28;94851;-69
2022/01/19 04:22:29;;;;;;;30.90;13.57;;;;;;;;;;5008270;28;94253;-69
2022/01/19 04:24:56;;;;;;;30.70;13.60;;;;;;;;;;4998728;28;92374;-69
2022/01/19 04:30:04;;;;;;;55.30;18.17;;;;;;;;;;5006571;28;92357;-69
2022/01/19 04:35:20;;;;;;;187.68;22.88;;;;;;;;;;5011013;28;93465;-69
2022/01/19 04:54:09;;;;;;;84.43;18.83;;;;;;;;;;5009974;28;92397;-69
2022/01/19 05:07:52;;;;;;;28.75;15.05;;;;;;;;;;5010943;28;92512;-69
2022/01/19 05:15:48;;;;;;;42.17;18.05;;;;;;;;;;4994190;28;92390;-69
2022/01/19 05:18:14;;;;;;;29.13;16.10;;;;;;;;;;5009623;28;93254;-69
2022/01/19 05:20:41;;;;;;;30.02;16.70;;;;;;;;;;5014755;28;93851;-69
2022/01/19 05:23:07;;;;;;;25.48;15.27;;;;;;;;;;5004722;28;94036;-69
2022/01/19 05:25:33;;;;;;;24.48;13.75;;;;;;;;;;5009977;28;93419;-69
2022/01/19 05:27:59;;;;;;;25.17;14.55;;;;;;;;;;4997632;28;92356;-69
2022/01/19 05:30:26;;;;;;;27.83;15.32;;;;;;;;;;5005026;28;93252;-69
2022/01/19 05:32:52;;;;;;;29.98;15.20;;;;;;;;;;4994145;28;92488;-69
2022/01/19 05:35:18;;;;;;;23.50;13.93;;;;;;;;;;5008157;28;92516;-69
2022/01/19 05:37:44;;;;;;;24.30;14.93;;;;;;;;;;5007149;28;95263;-69
2022/01/19 05:40:13;;;;;;;23.65;13.88;;;;;;;;;;5008473;28;92560;-69
2022/01/19 05:42:40;;;;;;;24.40;14.88;;;;;;;;;;5011453;28;92485;-69
2022/01/19 05:45:07;;;;;;;25.65;14.85;;;;;;;;;;4993855;28;93160;-69
2022/01/19 05:47:33;;;;;;;28.40;16.55;;;;;;;;;;5000938;28;92502;-69
2022/01/19 05:49:59;;;;;;;26.27;14.30;;;;;;;;;;5008588;28;94181;-69
2022/01/19 05:52:25;;;;;;;26.77;14.85;;;;;;;;;;5011011;28;92376;-69
2022/01/19 05:54:52;;;;;;;24.73;15.07;;;;;;;;;;5010439;28;91743;-69
2022/01/19 05:57:18;;;;;;;30.13;14.85;;;;;;;;;;5008866;28;93469;-71
2022/01/19 05:59:44;;;;;;;27.38;15.80;;;;;;;;;;5010623;28;92628;-70
2022/01/19 06:02:11;;;;;;;32.17;16.33;;;;;;;;;;4992352;28;94866;-70
2022/01/19 06:04:38;;;;;;;26.02;15.65;;;;;;;;;;5010558;28;96695;-70
2022/01/19 06:07:04;;;;;;;30.08;16.52;;;;;;;;;;5007219;28;92499;-70
2022/01/19 06:09:49;;;;;;;30.42;15.95;;;;;;;;;;5008639;28;92937;-70
2022/01/19 06:12:15;;;;;;;27.13;15.95;;;;;;;;;;5009679;28;92388;-70
2022/01/19 06:14:43;;;;;;;28.02;16.15;;;;;;;;;;5009163;28;93323;-70
2022/01/19 06:17:11;;;;;;;30.77;17.65;;;;;;;;;;5001459;28;92436;-70
2022/01/19 06:19:38;;;;;;;36.67;18.45;;;;;;;;;;5000693;28;91910;-70
2022/01/19 06:22:04;;;;;;;33.80;18.20;;;;;;;;;;5010417;28;92410;-70
2022/01/19 06:24:31;;;;;;;35.67;20.33;;;;;;;;;;5012312;28;93122;-70
2022/01/19 06:26:57;;;;;;;37.13;19.65;;;;;;;;;;4996650;28;95019;-70
2022/01/19 06:29:23;;;;;;;37.67;20.35;;;;;;;;;;5009646;28;96487;-70
2022/01/19 06:31:50;;;;;;;44.08;22.52;;;;;;;;;;5007522;28;92527;-70
2022/01/19 06:34:16;;;;;;;45.80;21.63;;;;;;;;;;5011140;28;92394;-70
2022/01/19 06:36:42;;;;;;;44.92;22.85;;;;;;;;;;5008485;28;94243;-70
2022/01/19 06:39:09;;;;;;;44.83;22.42;;;;;;;;;;5009799;28;92593;-70
2022/01/19 06:41:35;;;;;;;39.42;21.52;;;;;;;;;;5008659;28;92379;-70
2022/01/19 06:44:02;;;;;;;43.85;20.48;;;;;;;;;;5009343;28;91697;-69
2022/01/19 06:46:28;;;;;;;46.60;19.98;;;;;;;;;;5015256;28;92803;-69
2022/01/19 06:48:54;;;;;;;47.17;21.55;;;;;;;;;;5010016;28;92739;-69
2022/01/19 06:51:21;;;;;;;47.63;21.70;;;;;;;;;;5002782;28;94767;-69
2022/01/19 06:53:47;;;;;;;42.58;21.23;;;;;;;;;;5011757;28;92457;-69
2022/01/19 06:56:15;;;;;;;45.30;21.63;;;;;;;;;;5011585;28;92825;-69
2022/01/19 06:58:42;;;;;;;39.45;20.17;;;;;;;;;;5004475;28;94441;-70
2022/01/19 07:01:08;;;;;;;41.72;20.90;;;;;;;;;;5006173;28;92457;-69
2022/01/19 07:03:35;;;;;;;41.70;21.40;;;;;;;;;;4998520;28;93292;-69
2022/01/19 07:06:02;;;;;;;40.63;22.02;;;;;;;;;;5009621;28;92445;-70
2022/01/19 07:08:28;;;;;;;43.40;22.63;;;;;;;;;;5011745;28;92292;-70
2022/01/19 07:10:54;;;;;;;47.13;23.83;;;;;;;;;;5012918;28;93198;-70
2022/01/19 07:13:21;;;;;;;50.78;24.05;;;;;;;;;;5025725;28;92473;-70
2022/01/19 07:15:48;;;;;;;49.33;25.00;;;;;;;;;;5002752;28;95817;-70
2022/01/19 07:18:14;;;;;;;55.00;26.38;;;;;;;;;;5012147;28;93558;-70
2022/01/19 07:20:41;;;;;;;48.72;26.35;;;;;;;;;;5013376;28;92487;-70
2022/01/19 07:23:07;;;;;;;58.83;28.52;;;;;;;;;;5004844;28;92426;-70
2022/01/19 07:25:33;;;;;;;64.35;29.52;;;;;;;;;;5001520;28;93214;-70
2022/01/19 07:27:59;;;;;;;66.97;28.83;;;;;;;;;;5012165;28;92537;-69
2022/01/19 07:30:26;;;;;;;65.05;29.75;;;;;;;;;;5013540;28;94567;-69
2022/01/19 07:32:52;;;;;;;61.75;30.85;;;;;;;;;;5013034;28;91761;-69
2022/01/19 07:35:19;;;;;;;73.85;31.20;;;;;;;;;;5012141;28;92993;-69
2022/01/19 07:37:45;;;;;;;73.57;31.10;;;;;;;;;;5004879;28;94145;-69
2022/01/19 07:40:12;;;;;;;74.63;32.28;;;;;;;;;;5011106;28;94771;-69
2022/01/19 07:42:39;;;;;;;63.25;31.80;;;;;;;;;;5010493;28;94289;-69
2022/01/19 07:45:06;;;;;;;74.00;32.78;;;;;;;;;;5012976;28;92899;-70
2022/01/19 07:47:32;;;;;;;67.57;32.75;;;;;;;;;;5007323;28;92505;-70
2022/01/19 07:49:59;;;;;;;69.43;33.83;;;;;;;;;;5010843;28;93824;-70
2022/01/19 07:52:26;;;;;;;69.00;33.53;;;;;;;;;;5014228;28;92345;-70
2022/01/19 07:54:52;;;;;;;74.90;34.60;;;;;;;;;;5013137;28;92882;-70
2022/01/19 07:57:18;;;;;;;73.45;34.30;;;;;;;;;;5009344;28;91826;-70
2022/01/19 07:59:45;;;;;;;80.03;34.15;;;;;;;;;;5003967;28;93062;-70
2022/01/19 08:02:12;;;;;;;75.53;34.67;;;;;;;;;;5011654;28;92518;-70
2022/01/19 08:04:39;;;;;;;78.82;36.33;;;;;;;;;;5009621;28;94968;-71
2022/01/19 08:07:05;;;;;;;88.22;37.08;;;;;;;;;;4992809;28;92360;-68
2022/01/19 08:09:33;;;;;;;74.72;34.65;;;;;;;;;;5000417;28;94260;-68
2022/01/19 08:11:59;;;;;;;76.78;33.53;;;;;;;;;;4993461;28;92471;-68
2022/01/19 08:14:26;;;;;;;79.20;34.88;;;;;;;;;;4995849;28;92427;-68
2022/01/19 08:16:53;;;;;;;68.03;33.15;;;;;;;;;;5007944;28;93225;-70
2022/01/19 08:19:19;;;;;;;73.63;35.17;;;;;;;;;;5006161;28;92515;-71
2022/01/19 08:21:46;;;;;;;78.90;34.90;;;;;;;;;;5013021;28;93315;-71
2022/01/19 08:24:12;;;;;;;76.05;37.58;;;;;;;;;;5007172;28;92506;-72
2022/01/19 08:26:39;;;;;;;82.63;37.60;;;;;;;;;;5012442;28;93020;-72
2022/01/19 08:29:06;;;;;;;80.88;37.75;;;;;;;;;;5009226;28;94973;-72
2022/01/19 08:31:32;;;;;;;79.97;38.30;;;;;;;;;;5010175;28;93231;-72
2022/01/19 08:33:58;;;;;;;78.63;35.85;;;;;;;;;;5014422;28;92281;-72
2022/01/19 08:36:26;;;;;;;85.18;37.03;;;;;;;;;;5010286;28;92844;-71
2022/01/19 08:38:52;;;;;;;83.88;38.38;;;;;;;;;;5010467;28;92261;-71
2022/01/19 08:41:19;;;;;;;83.00;37.70;;;;;;;;;;5009157;28;94101;-71
2022/01/19 08:43:46;;;;;;;83.85;37.67;;;;;;;;;;4999036;28;93052;-72
2022/01/19 08:46:12;;;;;;;88.72;37.58;;;;;;;;;;4992663;28;91779;-72
2022/01/19 08:48:39;;;;;;;82.88;37.83;;;;;;;;;;4995135;28;93425;-72
2022/01/19 08:51:06;;;;;;;83.50;37.65;;;;;;;;;;5011057;28;92921;-72
2022/01/19 08:53:33;;;;;;;83.07;37.47;;;;;;;;;;5001280;28;95075;-70
2022/01/19 08:55:59;;;;;;;83.00;38.75;;;;;;;;;;5007952;28;95613;-71
2022/01/19 08:58:26;;;;;;;80.95;37.08;;;;;;;;;;5011932;28;92461;-70
2022/01/19 09:00:52;;;;;;;81.05;37.65;;;;;;;;;;4993696;28;93372;-72
2022/01/19 09:03:19;;;;;;;81.00;37.92;;;;;;;;;;5005020;28;93025;-70
2022/01/19 09:05:45;;;;;;;84.10;36.28;;;;;;;;;;4999491;28;92464;-70
2022/01/19 09:08:12;;;;;;;84.72;36.85;;;;;;;;;;5011389;28;92368;-70
2022/01/19 09:10:40;;;;;;;76.63;36.05;;;;;;;;;;5011834;28;91672;-71
2022/01/19 09:13:07;;;;;;;73.65;34.92;;;;;;;;;;5009628;28;92583;-71
2022/01/19 09:15:33;;;;;;;82.05;35.38;;;;;;;;;;5010517;28;92589;-71
2022/01/19 09:18:00;;;;;;;75.60;35.05;;;;;;;;;;5012423;28;95881;-69
2022/01/19 09:20:26;;;;;;;70.75;33.35;;;;;;;;;;5010570;28;94273;-71
2022/01/19 09:22:52;;;;;;;68.22;32.58;;;;;;;;;;5004718;28;92526;-70
2022/01/19 09:25:19;;;;;;;74.68;34.78;;;;;;;;;;5000320;28;93280;-71
2022/01/19 09:27:45;;;;;;;70.32;32.28;;;;;;;;;;5011276;28;92467;-71
2022/01/19 09:30:16;;;;;;;74.95;32.55;;;;;;;;;;5011443;28;94842;-71
2022/01/19 09:32:45;;;;;;;65.47;32.92;;;;;;;;;;5005753;28;93156;-71
2022/01/19 09:35:22;;;;;;;77.47;32.88;;;;;;;;;;5009739;28;95689;-70
2022/01/19 09:37:48;;;;;;;70.90;32.22;;;;;;;;;;5010611;28;93077;-70
2022/01/19 09:40:27;;;;;;;77.40;33.67;;;;;;;;;;5013374;28;92426;-69
2022/01/19 09:43:00;;;;;;;81.70;34.88;;;;;;;;;;5012191;27;95025;-69
2022/01/19 09:45:26;;;;;;;76.03;33.92;;;;;;;;;;5006676;28;92514;-70
2022/01/19 09:47:52;;;;;;;80.10;33.30;;;;;;;;;;5009491;27;93244;-70
2022/01/19 09:50:19;;;;;;;69.65;33.72;;;;;;;;;;5011151;28;93286;-70
2022/01/19 09:52:45;;;;;;;78.35;34.13;;;;;;;;;;5010982;28;92453;-71
2022/01/19 09:55:14;;;;;;;76.05;32.45;;;;;;;;;;5005309;28;93373;-70
2022/01/19 09:57:40;;;;;;;68.35;33.47;;;;;;;;;;5007451;28;94277;-69
2022/01/19 10:00:07;;;;;;;71.65;32.10;;;;;;;;;;5009717;28;93196;-70
2022/01/19 10:02:33;;;;;;;62.83;31.50;;;;;;;;;;5013319;28;92535;-70
2022/01/19 10:05:04;;;;;;;70.57;31.50;;;;;;;;;;5005846;28;92419;-70
2022/01/19 10:07:31;;;;;;;68.72;30.40;;;;;;;;;;5012194;28;95148;-70
2022/01/19 10:09:58;;;;;;;61.40;30.50;;;;;;;;;;5011248;28;92788;-71
2022/01/19 10:18:11;;;;;;;63.90;29.05;;;;;;;;;;5019924;28;94485;-70
2022/01/19 10:20:38;;;;;;;57.92;30.50;;;;;;;;;;5013943;28;92466;-70
2022/01/19 10:23:04;;;;;;;60.72;30.50;;;;;;;;;;5009026;28;93513;-70
2022/01/19 10:25:50;;;;;;;62.10;29.95;;;;;;;;;;5010844;28;91732;-71
2022/01/19 10:28:16;;;;;;;60.70;28.85;;;;;;;;;;5011256;28;92521;-71
2022/01/19 10:30:42;;;;;;;66.93;30.30;;;;;;;;;;5013572;28;93059;-71
2022/01/19 10:33:15;;;;;;;57.95;29.80;;;;;;;;;;5005799;28;94876;-71
2022/01/19 10:35:41;;;;;;;56.95;29.20;;;;;;;;;;5010397;28;95599;-71
2022/01/19 10:38:13;;;;;;;56.58;29.40;;;;;;;;;;5011749;28;92530;-71
2022/01/19 10:40:41;;;;;;;57.30;29.70;;;;;;;;;;5018323;28;92411;-71
2022/01/19 10:43:26;;;;;;;56.83;29.42;;;;;;;;;;5003588;28;92515;-71
2022/01/19 10:45:52;;;;;;;55.58;29.27;;;;;;;;;;5015943;28;93580;-71
2022/01/19 10:48:38;;;;;;;62.05;29.25;;;;;;;;;;5013621;28;93334;-71
2022/01/19 10:51:20;;;;;;;52.95;29.45;;;;;;;;;;5014151;28;91717;-71
2022/01/19 10:54:04;;;;;;;53.17;29.80;;;;;;;;;;5001936;28;92776;-70
2022/01/19 10:56:32;;;;;;;54.95;28.98;;;;;;;;;;5019497;28;93947;-70
2022/01/19 10:58:59;;;;;;;57.45;30.05;;;;;;;;;;5029787;28;96937;-71
2022/01/19 11:01:35;;;;;;;60.05;29.10;;;;;;;;;;5019542;28;92423;-70
2022/01/19 11:04:18;;;;;;;48.47;26.50;;;;;;;;;;5006282;28;92880;-70
2022/01/19 11:06:45;;;;;;;63.33;29.23;;;;;;;;;;5028051;28;92496;-70
2022/01/19 11:09:14;;;;;;;61.35;29.15;;;;;;;;;;4998356;28;92448;-70
2022/01/19 11:11:44;;;;;;;59.13;28.15;;;;;;;;;;5011875;28;93755;-70
2022/01/19 11:14:13;;;;;;;51.67;28.50;;;;;;;;;;4998628;28;92842;-71
2022/01/19 11:16:40;;;;;;;58.55;27.98;;;;;;;;;;5012832;28;92375;-70
2022/01/19 11:19:06;;;;;;;72.80;30.95;;;;;;;;;;5012822;28;92518;-70
2022/01/19 11:21:38;;;;;;;55.25;27.48;;;;;;;;;;5013664;28;92458;-71
2022/01/19 11:24:14;;;;;;;56.55;28.60;;;;;;;;;;5009423;28;95267;-70
2022/01/19 11:26:41;;;;;;;50.03;28.52;;;;;;;;;;5012613;28;93608;-71
2022/01/19 11:29:15;;;;;;;58.42;29.45;;;;;;;;;;5011973;28;92552;-70
2022/01/19 11:31:42;;;;;;;58.75;31.33;;;;;;;;;;5016055;28;92440;-70
2022/01/19 11:34:09;;;;;;;51.00;28.95;;;;;;;;;;5010534;28;92438;-70
2022/01/19 11:36:36;;;;;;;56.55;28.23;;;;;;;;;;5012399;28;93268;-70
2022/01/19 11:39:05;;;;;;;53.90;28.38;;;;;;;;;;5012352;28;92419;-70
2022/01/19 11:41:42;;;;;;;51.67;30.05;;;;;;;;;;5013379;28;91727;-70
2022/01/19 11:44:10;;;;;;;57.33;29.80;;;;;;;;;;5009965;28;92465;-70
2022/01/19 11:46:40;;;;;;;55.35;29.65;;;;;;;;;;5012628;28;93902;-70
2022/01/19 11:49:07;;;;;;;60.22;30.90;;;;;;;;;;5011009;28;94903;-70
2022/01/19 11:51:35;;;;;;;53.88;30.15;;;;;;;;;;5013257;28;95863;-71
2022/01/19 11:54:01;;;;;;;52.42;29.65;;;;;;;;;;5004789;28;92551;-70
2022/01/19 11:56:28;;;;;;;51.75;29.75;;;;;;;;;;5008557;28;92585;-69
2022/01/19 11:59:02;;;;;;;52.28;27.15;;;;;;;;;;5012621;28;94481;-70
2022/01/19 12:01:28;;;;;;;54.60;30.05;;;;;;;;;;5012491;28;92660;-70
2022/01/19 12:04:11;;;;;;;54.45;30.15;;;;;;;;;;5012376;28;93355;-71
2022/01/19 12:06:37;;;;;;;52.78;30.08;;;;;;;;;;5011616;28;92127;-71
2022/01/19 12:09:06;;;;;;;58.35;28.70;;;;;;;;;;5010798;28;92460;-70
2022/01/19 12:11:36;;;;;;;53.78;29.48;;;;;;;;;;5010555;28;94144;-70
2022/01/19 12:14:11;;;;;;;59.30;30.83;;;;;;;;;;5009889;28;96433;-70
2022/01/19 12:16:52;;;;;;;50.40;28.67;;;;;;;;;;5014264;28;94017;-70
2022/01/19 12:19:20;;;;;;;60.78;30.48;;;;;;;;;;5012060;28;92652;-70
2022/01/19 12:21:48;;;;;;;55.78;28.63;;;;;;;;;;5012775;28;92429;-70
2022/01/19 12:24:37;;;;;;;55.70;30.52;;;;;;;;;;5000065;28;92454;-70
2022/01/19 12:27:04;;;;;;;58.83;29.48;;;;;;;;;;5011715;28;92731;-70
2022/01/19 12:29:33;;;;;;;54.88;28.88;;;;;;;;;;5011611;28;92424;-71
2022/01/19 12:32:08;;;;;;;51.75;29.20;;;;;;;;;;5010032;28;94307;-70
2022/01/19 12:34:40;;;;;;;55.17;29.10;;;;;;;;;;5007454;28;92824;-71
2022/01/19 12:37:07;;;;;;;55.35;29.80;;;;;;;;;;5012312;28;92627;-70
2022/01/19 12:39:35;;;;;;;54.05;29.52;;;;;;;;;;5011993;28;94870;-70
2022/01/19 12:42:03;;;;;;;52.97;28.92;;;;;;;;;;5010169;28;93830;-70
2022/01/19 12:44:35;;;;;;;53.45;29.38;;;;;;;;;;5003039;28;93896;-71
2022/01/19 12:47:24;;;;;;;56.20;29.52;;;;;;;;;;5012292;28;93629;-71
2022/01/19 12:49:55;;;;;;;58.67;29.80;;;;;;;;;;5010758;28;92502;-70
2022/01/19 12:52:22;;;;;;;52.78;29.27;;;;;;;;;;5015808;28;92424;-70
2022/01/19 12:54:49;;;;;;;54.03;30.25;;;;;;;;;;5032502;27;94778;-70
2022/01/19 12:57:16;;;;;;;54.97;30.90;;;;;;;;;;5026752;27;91843;-70
2022/01/19 12:59:43;;;;;;;61.55;31.80;;;;;;;;;;5012067;28;92328;-70
2022/01/19 13:02:13;;;;;;;53.40;29.77;;;;;;;;;;5011958;28;92657;-70
2022/01/19 13:04:40;;;;;;;57.33;30.52;;;;;;;;;;5002597;28;94920;-70
2022/01/19 13:07:25;;;;;;;55.58;28.98;;;;;;;;;;5012031;28;93392;-70
2022/01/19 13:10:40;;;;;;;58.10;30.13;;;;;;;;;;4994354;28;92615;-70
2022/01/19 13:13:10;;;;;;;56.45;29.33;;;;;;;;;;5011559;28;94201;-70
2022/01/19 13:15:44;;;;;;;71.35;32.58;;;;;;;;;;4991708;28;92283;-70
2022/01/19 13:18:11;;;;;;;56.90;30.30;;;;;;;;;;4999249;28;93204;-70
2022/01/19 13:20:47;;;;;;;56.97;31.27;;;;;;;;;;5011802;28;93072;-70
2022/01/19 13:23:13;;;;;;;60.78;31.15;;;;;;;;;;5011415;28;92847;-70
2022/01/19 13:25:40;;;;;;;59.65;30.92;;;;;;;;;;5010663;28;92742;-70
2022/01/19 13:28:06;;;;;;;51.33;29.45;;;;;;;;;;5011493;28;92371;-70
2022/01/19 13:30:33;;;;;;;56.05;31.17;;;;;;;;;;5008166;28;94887;-70
2022/01/19 13:33:08;;;;;;;58.42;30.38;;;;;;;;;;5010690;28;95731;-69
2022/01/19 13:35:35;;;;;;;57.85;29.10;;;;;;;;;;5011243;28;93890;-69
2022/01/19 13:38:08;;;;;;;61.00;31.50;;;;;;;;;;5010740;28;92443;-69
2022/01/19 13:40:34;;;;;;;62.78;31.38;;;;;;;;;;5006089;28;93907;-69
2022/01/19 13:43:04;;;;;;;53.95;30.35;;;;;;;;;;5013784;28;93307;-69
2022/01/19 13:45:48;;;;;;;52.75;29.35;;;;;;;;;;5020537;28;92464;-69
2022/01/19 13:48:28;;;;;;;67.70;31.92;;;;;;;;;;5018289;28;93667;-69
2022/01/19 13:50:54;;;;;;;53.45;29.77;;;;;;;;;;5017457;28;92716;-70
2022/01/19 13:53:28;;;;;;;53.90;29.08;;;;;;;;;;5017469;28;93289;-70
2022/01/19 13:55:55;;;;;;;50.78;29.77;;;;;;;;;;5016313;28;95668;-70
2022/01/19 13:58:28;;;;;;;59.55;30.17;;;;;;;;;;5017966;28;92419;-70
2022/01/19 14:00:55;;;;;;;57.25;31.25;;;;;;;;;;5017944;28;93675;-69
2022/01/19 14:03:22;;;;;;;50.30;29.35;;;;;;;;;;5016885;28;93549;-70
2022/01/19 14:05:51;;;;;;;62.42;29.10;;;;;;;;;;5013423;28;92478;-69
2022/01/19 14:08:31;;;;;;;58.85;29.85;;;;;;;;;;5011528;28;92672;-69
2022/01/19 14:10:58;;;;;;;;;;;;;;;;;;5010670;28;94217;-69
2022/01/19 14:13:29;;;;;;;56.53;29.52;;;;;;;;;;5017844;28;123170;-69
2022/01/19 14:15:57;;;;;;;56.15;28.38;;;;;;;;;;5017100;28;93431;-70
2022/01/19 14:18:24;;;;;;;59.58;30.13;;;;;;;;;;5017623;28;92316;-71
2022/01/19 14:21:09;;;;;;;54.15;28.05;;;;;;;;;;5016239;28;94909;-72
2022/01/19 14:23:35;;;;;;;53.00;27.73;;;;;;;;;;5013881;28;93735;-71
2022/01/19 14:26:06;;;;;;;54.97;28.70;;;;;;;;;;5011783;28;92412;-71
2022/01/19 14:28:33;;;;;;;60.17;25.95;;;;;;;;;;5016939;28;92626;-71
2022/01/19 14:31:03;;;;;;;49.50;25.75;;;;;;;;;;5020009;28;92841;-71
2022/01/19 14:33:46;;;;;;;53.05;27.20;;;;;;;;;;5016467;28;93259;-71
2022/01/19 14:36:20;;;;;;;53.15;27.15;;;;;;;;;;5016582;28;92469;-71
2022/01/19 14:38:47;;;;;;;58.58;27.38;;;;;;;;;;5018018;28;91650;-71
2022/01/19 14:41:18;;;;;;;59.63;29.63;;;;;;;;;;5016524;28;92427;-71
2022/01/19 14:43:48;;;;;;;53.92;26.38;;;;;;;;;;5015485;28;93390;-69
2022/01/19 14:46:36;;;;;;;56.20;26.83;;;;;;;;;;5015379;28;94837;-68
2022/01/19 14:49:02;;;;;;;61.47;26.98;;;;;;;;;;5016806;28;95710;-68
2022/01/19 14:51:29;;;;;;;49.30;26.10;;;;;;;;;;5015207;28;92364;-68
2022/01/19 14:54:04;;;;;;;56.00;24.73;;;;;;;;;;5016563;28;92319;-68
2022/01/19 14:56:31;;;;;;;56.20;25.90;;;;;;;;;;5013567;28;92353;-69
2022/01/19 14:59:00;;;;;;;47.50;24.13;;;;;;;;;;5013341;28;92551;-68
2022/01/19 15:01:27;;;;;;;50.95;25.63;;;;;;;;;;5013871;28;94404;-69
2022/01/19 15:03:54;;;;;;;54.13;25.77;;;;;;;;;;5013766;28;92791;-70
2022/01/19 15:06:21;;;;;;;59.72;25.75;;;;;;;;;;5012801;28;92472;-69
2022/01/19 15:08:48;;;;;;;53.20;25.08;;;;;;;;;;5013904;28;92501;-69
2022/01/19 15:11:15;;;;;;;56.70;25.95;;;;;;;;;;5011626;28;95417;-69
2022/01/19 15:13:42;;;;;;;56.85;26.48;;;;;;;;;;5016081;28;93320;-69
2022/01/19 15:16:08;;;;;;;56.28;26.35;;;;;;;;;;5013556;28;93333;-69
2022/01/19 15:18:36;;;;;;;61.92;26.83;;;;;;;;;;5013286;28;92862;-69
2022/01/19 15:21:02;;;;;;;65.18;26.67;;;;;;;;;;5012528;28;92459;-69
2022/01/19 15:23:29;;;;;;;56.75;25.23;;;;;;;;;;5013374;28;92846;-69
2022/01/19 15:25:57;;;;;;;62.42;26.10;;;;;;;;;;5013308;28;92345;-69
2022/01/19 15:28:24;;;;;;;61.72;27.25;;;;;;;;;;5004258;28;91865;-69
2022/01/19 15:30:51;;;;;;;53.13;26.10;;;;;;;;;;4993434;28;92482;-69
2022/01/19 15:33:17;;;;;;;60.08;26.98;;;;;;;;;;4999029;28;92401;-69
2022/01/19 15:35:43;;;;;;;54.25;26.08;;;;;;;;;;5013411;28;94768;-69
2022/01/19 15:38:10;;;;;;;59.22;26.30;;;;;;;;;;5013375;28;92665;-69
2022/01/19 15:40:37;;;;;;;61.30;27.23;;;;;;;;;;5013068;28;93009;-69
2022/01/19 15:43:05;;;;;;;64.40;27.25;;;;;;;;;;5011187;28;93045;-69
2022/01/19 15:45:34;;;;;;;57.50;25.98;;;;;;;;;;5012409;28;92511;-69
2022/01/19 15:48:01;;;;;;;54.55;25.50;;;;;;;;;;5012477;28;92377;-69
2022/01/19 15:50:28;;;;;;;56.50;26.05;;;;;;;;;;5012265;28;93519;-70
2022/01/19 15:52:54;;;;;;;43.85;23.10;;;;;;;;;;5013674;28;91666;-69
2022/01/19 15:55:21;;;;;;;53.25;24.65;;;;;;;;;;5012747;28;93524;-69
2022/01/19 15:58:07;;;;;;;42.80;22.92;;;;;;;;;;5005124;28;94481;-69